Bacup, United Kingdom
Current Conditions -  °F | °C
As of 10:20 PM on Tuesday 21 Oct 2014 (Local Time) from EGCC Reporting Station
Light Rain Light Rain  
Wind Chill: 39°   Ceiling: Unl
Heat Index: 45°   Visibility: 6mi
Dew Point: 39°   Wind: 10mph
Humidity: 81%   Direction: 310°NW
Pressure: 30.06"   Gusts: NA
Location:  53.7°N, 2.2°W
Report Text: EGCC 212120Z 31009KT 9999 -RA FEW033TCU SCT043 07/04 Q1018 TEMPO SHRA
Loading
Personal Weather Stations






























Interactive Weather Map
Tropical Storm Tracking
New forecast layout! Learn more

10-Day Weather Forecast

Advertisements
Track Severe Weather on mobile